createdAt,value
2018-02-24T00:00:45.135Z,0.00
2018-02-24T00:01:45.119Z,0.00
2018-02-24T00:02:45.105Z,0.00
2018-02-24T00:03:45.093Z,0.00
2018-02-24T00:04:45.079Z,0.00
2018-02-24T00:05:45.065Z,0.00
2018-02-24T00:06:45.053Z,0.00
2018-02-24T00:07:45.036Z,0.00
2018-02-24T00:08:45.026Z,0.00
2018-02-24T00:09:45.012Z,0.00
2018-02-24T00:10:44.998Z,0.00
2018-02-24T00:11:44.979Z,0.00
2018-02-24T00:12:44.963Z,0.00
2018-02-24T00:13:44.948Z,0.00
2018-02-24T00:14:44.936Z,0.00
2018-02-24T00:15:44.924Z,0.00
2018-02-24T00:16:44.911Z,0.00
2018-02-24T00:17:44.898Z,0.00
2018-02-24T00:18:44.883Z,0.00
2018-02-24T00:19:44.864Z,0.00
2018-02-24T00:20:44.850Z,0.00
2018-02-24T00:21:44.836Z,0.00
2018-02-24T00:22:44.822Z,0.00
2018-02-24T00:23:44.807Z,0.00
2018-02-24T00:24:44.793Z,0.00
2018-02-24T00:25:44.779Z,0.00
2018-02-24T00:26:44.774Z,0.00
2018-02-24T00:27:44.753Z,0.00
2018-02-24T00:28:44.738Z,0.00
2018-02-24T00:29:44.726Z,0.00
2018-02-24T00:30:44.711Z,0.00
2018-02-24T00:31:44.696Z,0.00
2018-02-24T00:32:44.683Z,0.00
2018-02-24T00:33:44.669Z,0.00
2018-02-24T00:34:44.655Z,0.00
2018-02-24T00:35:44.638Z,0.00
2018-02-24T00:36:44.623Z,0.00
2018-02-24T00:37:44.609Z,0.00
2018-02-24T00:38:44.596Z,0.00
2018-02-24T00:39:44.580Z,0.00
2018-02-24T00:40:44.566Z,0.00
2018-02-24T00:41:44.552Z,0.00
2018-02-24T00:42:44.537Z,0.00
2018-02-24T00:43:44.526Z,0.00
2018-02-24T00:44:44.512Z,0.00
2018-02-24T00:45:44.498Z,0.00
2018-02-24T00:46:44.484Z,0.00
2018-02-24T00:47:44.470Z,0.00
2018-02-24T00:48:44.455Z,0.00
2018-02-24T00:49:44.440Z,0.00
2018-02-24T00:50:44.427Z,0.00
2018-02-24T00:51:44.410Z,0.00
2018-02-24T00:52:44.395Z,0.00
2018-02-24T00:53:44.381Z,0.00
2018-02-24T00:54:44.368Z,0.00
2018-02-24T00:55:44.354Z,0.00
2018-02-24T00:56:44.338Z,0.00
2018-02-24T00:57:44.323Z,0.00
2018-02-24T00:58:44.310Z,0.00
2018-02-24T00:59:44.297Z,0.00
2018-02-24T01:00:44.284Z,0.00
2018-02-24T01:01:44.268Z,0.00
2018-02-24T01:02:44.256Z,0.00
2018-02-24T01:03:44.241Z,0.00
2018-02-24T01:04:44.227Z,0.00
2018-02-24T01:05:44.213Z,0.00
2018-02-24T01:06:44.201Z,0.00
2018-02-24T01:07:44.181Z,0.00
2018-02-24T01:08:44.166Z,0.00
2018-02-24T01:09:44.152Z,0.00
2018-02-24T01:10:44.138Z,0.00
2018-02-24T01:11:44.124Z,0.00
2018-02-24T01:12:44.109Z,0.00
2018-02-24T01:13:44.095Z,0.00
2018-02-24T01:14:44.082Z,0.00
2018-02-24T01:15:44.076Z,0.00
2018-02-24T01:16:44.054Z,0.00
2018-02-24T01:17:44.041Z,0.00
2018-02-24T01:18:44.027Z,0.00
2018-02-24T01:19:44.008Z,0.00
2018-02-24T01:20:43.996Z,0.00
2018-02-24T01:21:43.980Z,0.00
2018-02-24T01:22:43.967Z,0.00
2018-02-24T01:23:43.955Z,0.00
2018-02-24T01:24:43.941Z,0.00
2018-02-24T01:25:43.926Z,0.00
2018-02-24T01:26:43.915Z,0.00
2018-02-24T01:27:43.896Z,0.00
2018-02-24T01:28:43.887Z,0.00
2018-02-24T01:29:43.869Z,0.00
2018-02-24T01:30:43.856Z,0.00
2018-02-24T01:31:43.836Z,0.00
2018-02-24T01:32:43.824Z,0.00
2018-02-24T01:33:43.811Z,0.00
2018-02-24T01:34:43.795Z,0.00
2018-02-24T01:35:43.780Z,0.00
2018-02-24T01:36:43.766Z,0.00
2018-02-24T01:37:43.753Z,0.00
2018-02-24T01:38:43.739Z,0.00
2018-02-24T01:39:43.725Z,0.00
2018-02-24T01:40:43.712Z,0.00
2018-02-24T01:41:43.698Z,0.00
2018-02-24T01:42:43.687Z,0.00
2018-02-24T01:43:43.669Z,0.00
2018-02-24T01:44:43.655Z,0.00
2018-02-24T01:45:43.641Z,0.00
2018-02-24T01:46:43.626Z,0.00
2018-02-24T01:47:43.608Z,0.00
2018-02-24T01:48:43.594Z,0.00
2018-02-24T01:49:43.580Z,0.00
2018-02-24T01:50:43.567Z,0.00
2018-02-24T01:51:43.553Z,0.00
2018-02-24T01:52:43.537Z,0.00
2018-02-24T01:53:43.524Z,0.00
2018-02-24T01:54:43.508Z,0.00
2018-02-24T01:55:43.497Z,0.00
2018-02-24T01:56:43.482Z,0.00
2018-02-24T01:57:43.468Z,0.00
2018-02-24T01:58:43.455Z,0.00
2018-02-24T01:59:43.439Z,0.00
2018-02-24T02:00:43.425Z,0.00
2018-02-24T02:01:43.410Z,0.00
2018-02-24T02:02:43.397Z,0.00
2018-02-24T02:03:43.378Z,0.00
2018-02-24T02:04:43.365Z,0.00
2018-02-24T02:05:43.353Z,0.00
2018-02-24T02:06:43.336Z,0.00
2018-02-24T02:07:43.321Z,0.00
2018-02-24T02:08:43.308Z,0.00
2018-02-24T02:09:43.293Z,0.00
2018-02-24T02:10:43.279Z,0.00
2018-02-24T02:11:43.266Z,0.00
2018-02-24T02:12:43.253Z,0.00
2018-02-24T02:13:43.245Z,0.00
2018-02-24T02:14:43.224Z,0.00
2018-02-24T02:15:43.208Z,0.00
2018-02-24T02:16:43.194Z,0.00
2018-02-24T02:17:43.180Z,0.00
2018-02-24T02:18:43.166Z,0.00
2018-02-24T02:19:43.147Z,0.00
2018-02-24T02:20:43.134Z,0.00
2018-02-24T02:21:43.120Z,0.00
2018-02-24T02:22:43.105Z,0.00
2018-02-24T02:23:43.096Z,0.00
2018-02-24T02:24:43.080Z,0.00
2018-02-24T02:25:43.064Z,0.00
2018-02-24T02:26:43.051Z,0.00
2018-02-24T02:27:43.035Z,0.00
2018-02-24T02:28:43.017Z,0.00
2018-02-24T02:29:43.007Z,0.00
2018-02-24T02:30:42.989Z,0.00
2018-02-24T02:31:42.981Z,0.00
2018-02-24T02:32:42.959Z,0.00
2018-02-24T02:33:42.946Z,0.00
2018-02-24T02:34:42.932Z,0.00
2018-02-24T02:35:42.918Z,0.00
2018-02-24T02:36:42.904Z,0.00
2018-02-24T02:37:42.890Z,0.00
2018-02-24T02:38:42.875Z,0.00
2018-02-24T02:39:42.861Z,0.00
2018-02-24T02:40:42.845Z,0.00
2018-02-24T02:41:42.831Z,0.00
2018-02-24T02:42:42.819Z,0.00
2018-02-24T02:43:42.800Z,0.00
2018-02-24T02:44:42.784Z,0.00
2018-02-24T02:45:42.770Z,0.00
2018-02-24T02:46:42.757Z,0.00
2018-02-24T02:47:42.740Z,0.00
2018-02-24T02:48:42.728Z,0.00
2018-02-24T02:49:42.712Z,0.00
2018-02-24T02:50:42.697Z,0.00
2018-02-24T02:51:42.685Z,0.00
2018-02-24T02:52:42.669Z,0.00
2018-02-24T02:53:42.661Z,0.00
2018-02-24T02:54:42.643Z,0.00
2018-02-24T02:55:42.628Z,0.00
2018-02-24T02:56:42.612Z,0.00
2018-02-24T02:57:42.598Z,0.00
2018-02-24T02:58:42.583Z,0.00
2018-02-24T02:59:42.565Z,0.00
2018-02-24T03:00:42.551Z,0.00
2018-02-24T03:01:42.536Z,0.00
2018-02-24T03:02:42.522Z,0.00
2018-02-24T03:03:42.508Z,0.00
2018-02-24T03:04:42.490Z,0.00
2018-02-24T03:05:42.486Z,0.00
2018-02-24T03:06:42.463Z,0.00
2018-02-24T03:07:42.451Z,0.00
2018-02-24T03:08:42.436Z,0.00
2018-02-24T03:09:42.422Z,0.00
2018-02-24T03:10:42.407Z,0.00
2018-02-24T03:11:42.391Z,0.00
2018-02-24T03:12:42.376Z,0.00
2018-02-24T03:13:42.362Z,0.00
2018-02-24T03:14:42.351Z,0.00
2018-02-24T03:15:42.330Z,0.00
2018-02-24T03:16:42.315Z,0.00
2018-02-24T03:17:42.301Z,0.00
2018-02-24T03:18:42.287Z,0.00
2018-02-24T03:19:42.269Z,0.00
2018-02-24T03:20:42.257Z,0.00
2018-02-24T03:21:42.249Z,0.00
2018-02-24T03:22:42.228Z,0.00
2018-02-24T03:23:42.215Z,0.00
2018-02-24T03:24:42.201Z,0.00
2018-02-24T03:25:42.187Z,0.00
2018-02-24T03:26:42.173Z,0.00
2018-02-24T03:27:42.155Z,0.00
2018-02-24T03:28:42.142Z,0.00
2018-02-24T03:29:42.128Z,0.00
2018-02-24T03:30:42.128Z,0.00
2018-02-24T03:31:42.096Z,0.00
2018-02-24T03:32:42.082Z,0.00
2018-02-24T03:33:42.069Z,0.00
2018-02-24T03:34:42.052Z,0.00
2018-02-24T03:35:42.040Z,0.00
2018-02-24T03:36:42.021Z,0.00
2018-02-24T03:37:42.006Z,0.00
2018-02-24T03:38:41.993Z,0.00
2018-02-24T03:39:41.980Z,0.00
2018-02-24T03:40:41.965Z,0.00
2018-02-24T03:41:41.951Z,0.00
2018-02-24T03:42:41.935Z,0.00
2018-02-24T03:43:41.920Z,0.00
2018-02-24T03:44:41.909Z,0.00
2018-02-24T03:45:41.892Z,0.00
2018-02-24T03:46:41.877Z,0.00
2018-02-24T03:47:41.864Z,0.00
2018-02-24T03:48:41.844Z,0.00
2018-02-24T03:49:41.834Z,0.00
2018-02-24T03:50:41.816Z,0.00
2018-02-24T03:51:41.799Z,0.00
2018-02-24T03:52:41.785Z,0.00
2018-02-24T03:53:41.770Z,0.00
2018-02-24T03:54:41.756Z,0.00
2018-02-24T03:55:41.744Z,0.00
2018-02-24T03:56:41.729Z,0.00
2018-02-24T03:57:41.717Z,0.00
2018-02-24T03:58:41.699Z,0.00
2018-02-24T03:59:41.684Z,0.00
2018-02-24T04:00:41.669Z,0.00
2018-02-24T04:01:41.655Z,0.00
2018-02-24T04:02:41.639Z,0.00
2018-02-24T04:03:41.622Z,0.00
2018-02-24T04:04:41.608Z,0.00
2018-02-24T04:05:41.593Z,0.00
2018-02-24T04:06:41.578Z,0.00
2018-02-24T04:07:41.562Z,0.00
2018-02-24T04:08:41.548Z,0.00
2018-02-24T04:09:41.533Z,0.00
2018-02-24T04:10:41.519Z,0.00
2018-02-24T04:11:41.506Z,0.00
2018-02-24T04:12:41.492Z,0.00
2018-02-24T04:13:41.477Z,0.00
2018-02-24T04:14:41.467Z,0.00
2018-02-24T04:15:41.448Z,0.00
2018-02-24T04:16:41.432Z,0.00
2018-02-24T04:17:41.419Z,0.00
2018-02-24T04:18:41.403Z,0.00
2018-02-24T04:19:41.385Z,0.00
2018-02-24T04:20:41.371Z,0.00
2018-02-24T04:21:41.356Z,0.00
2018-02-24T04:22:41.342Z,0.00
2018-02-24T04:23:41.325Z,0.00
2018-02-24T04:24:41.311Z,0.00
2018-02-24T04:25:41.302Z,0.00
2018-02-24T04:26:41.282Z,0.00
2018-02-24T04:27:41.270Z,0.00
2018-02-24T04:28:41.254Z,0.00
2018-02-24T04:29:41.243Z,0.00
2018-02-24T04:30:41.225Z,0.00
2018-02-24T04:31:41.207Z,0.00
2018-02-24T04:32:41.193Z,0.00
2018-02-24T04:33:41.178Z,0.00
2018-02-24T04:34:41.166Z,0.00
2018-02-24T04:35:41.150Z,0.00
2018-02-24T04:36:41.136Z,0.00
2018-02-24T04:37:41.122Z,0.00
2018-02-24T04:38:41.108Z,0.00
2018-02-24T04:39:41.092Z,0.00
2018-02-24T04:40:41.076Z,0.00
2018-02-24T04:41:41.062Z,0.00
2018-02-24T04:42:41.047Z,0.00
2018-02-24T04:43:41.029Z,0.00
2018-02-24T04:44:41.014Z,0.00
2018-02-24T04:45:41.000Z,0.00
2018-02-24T04:46:40.984Z,0.00
2018-02-24T04:47:40.970Z,0.00
2018-02-24T04:48:40.958Z,0.00
2018-02-24T04:49:40.940Z,0.00
2018-02-24T04:50:40.925Z,0.00
2018-02-24T04:51:40.913Z,0.00
2018-02-24T04:52:40.899Z,0.00
2018-02-24T04:53:40.883Z,0.00
2018-02-24T04:54:40.868Z,0.00
2018-02-24T04:55:40.854Z,0.00
2018-02-24T04:56:40.840Z,0.00
2018-02-24T04:57:40.824Z,0.00
2018-02-24T04:58:40.813Z,0.00
2018-02-24T04:59:40.791Z,0.00
2018-02-24T05:00:40.776Z,0.00
2018-02-24T05:01:40.766Z,0.00
2018-02-24T05:02:40.748Z,0.00
2018-02-24T05:03:40.732Z,0.00
2018-02-24T05:04:40.717Z,0.00
2018-02-24T05:05:40.703Z,0.00
2018-02-24T05:06:40.687Z,0.00
2018-02-24T05:07:40.674Z,0.00
2018-02-24T05:08:40.659Z,0.00
2018-02-24T05:09:40.646Z,0.00
2018-02-24T05:10:40.635Z,0.00
2018-02-24T05:11:40.615Z,0.00
2018-02-24T05:12:40.600Z,0.00
2018-02-24T05:13:40.586Z,0.00
2018-02-24T05:14:40.572Z,0.00
2018-02-24T05:15:40.553Z,0.00
2018-02-24T05:16:40.538Z,0.00
2018-02-24T05:17:40.523Z,0.00
2018-02-24T05:18:40.508Z,0.00
2018-02-24T05:19:40.492Z,0.00
2018-02-24T05:20:40.478Z,0.00
2018-02-24T05:21:40.464Z,0.00
2018-02-24T05:22:40.450Z,0.00
2018-02-24T05:23:40.437Z,0.00
2018-02-24T05:24:40.422Z,0.00
2018-02-24T05:25:40.406Z,0.00
2018-02-24T05:26:40.391Z,0.00
2018-02-24T05:27:40.376Z,0.00
2018-02-24T05:28:40.362Z,0.00
2018-02-24T05:29:40.346Z,0.00
2018-02-24T05:30:40.332Z,0.00
2018-02-24T05:31:40.332Z,0.00
2018-02-24T05:32:40.297Z,0.00
2018-02-24T05:33:40.287Z,0.00
2018-02-24T05:34:40.268Z,0.00
2018-02-24T05:35:40.256Z,0.00
2018-02-24T05:36:40.242Z,0.00
2018-02-24T05:37:40.228Z,0.00
2018-02-24T05:38:40.212Z,0.00
2018-02-24T05:39:40.196Z,0.00
2018-02-24T05:40:40.179Z,0.00
2018-02-24T05:41:40.164Z,0.00
2018-02-24T05:42:40.148Z,0.00
2018-02-24T05:43:40.133Z,0.00
2018-02-24T05:44:40.119Z,0.00
2018-02-24T05:45:40.103Z,0.00
2018-02-24T05:46:40.090Z,0.00
2018-02-24T05:47:40.075Z,0.00
2018-02-24T05:48:40.062Z,0.00
2018-02-24T05:49:40.047Z,0.00
2018-02-24T05:50:40.032Z,0.00
2018-02-24T05:51:40.015Z,4.00
2018-02-24T05:52:40.001Z,0.00
2018-02-24T05:53:39.986Z,4.00
2018-02-24T05:54:39.971Z,4.00
2018-02-24T05:55:39.952Z,4.00
2018-02-24T05:56:39.936Z,0.00
2018-02-24T05:57:39.921Z,4.00
2018-02-24T05:58:39.907Z,4.00
2018-02-24T05:59:39.892Z,8.00
2018-02-24T06:00:39.876Z,4.00
2018-02-24T06:01:39.862Z,8.00
2018-02-24T06:02:39.848Z,8.00
2018-02-24T06:03:39.834Z,8.00
2018-02-24T06:04:39.818Z,12.00
2018-02-24T06:05:39.805Z,12.00
2018-02-24T06:06:39.789Z,20.00
2018-02-24T06:07:39.774Z,20.00
2018-02-24T06:08:39.758Z,28.00
2018-02-24T06:09:39.743Z,32.00
2018-02-24T06:10:39.728Z,36.00
2018-02-24T06:11:39.710Z,44.00
2018-02-24T06:12:39.697Z,48.00
2018-02-24T06:13:39.680Z,60.00
2018-02-24T06:14:39.664Z,64.00
2018-02-24T06:15:39.658Z,76.00
2018-02-24T06:16:39.635Z,88.00
2018-02-24T06:17:39.620Z,100.00
2018-02-24T06:18:39.605Z,108.00
2018-02-24T06:19:39.591Z,124.00
2018-02-24T06:20:39.578Z,140.00
2018-02-24T06:21:39.562Z,156.00
2018-02-24T06:22:39.548Z,172.00
2018-02-24T06:23:39.531Z,192.00
2018-02-24T06:24:39.516Z,208.00
2018-02-24T06:25:39.501Z,232.00
2018-02-24T06:26:39.491Z,252.00
2018-02-24T06:27:39.479Z,280.00
2018-02-24T06:28:39.454Z,304.00
2018-02-24T06:29:39.443Z,328.00
2018-02-24T06:30:39.423Z,352.00
2018-02-24T06:31:39.409Z,384.00
2018-02-24T06:32:39.392Z,412.00
2018-02-24T06:33:39.381Z,440.00
2018-02-24T06:34:39.364Z,476.00
2018-02-24T06:35:39.351Z,512.00
2018-02-24T06:36:39.335Z,544.00
2018-02-24T06:37:39.319Z,584.00
2018-02-24T06:38:39.305Z,624.00
2018-02-24T06:39:39.296Z,664.00
2018-02-24T06:40:39.272Z,704.00
2018-02-24T06:41:39.259Z,748.00
2018-02-24T06:42:39.242Z,792.00
2018-02-24T06:43:39.229Z,836.00
2018-02-24T06:44:39.214Z,880.00
2018-02-24T06:45:39.200Z,928.00
2018-02-24T06:46:39.185Z,976.00
2018-02-24T06:47:39.168Z,1028.00
2018-02-24T06:48:39.153Z,1092.00
2018-02-24T06:49:39.139Z,1176.00
2018-02-24T06:50:39.131Z,1340.00
2018-02-24T06:51:39.106Z,1860.00
2018-02-24T06:52:39.090Z,2676.00
2018-02-24T06:53:39.077Z,3324.00
2018-02-24T06:54:39.088Z,3812.00
2018-02-24T06:55:39.046Z,4276.00
2018-02-24T06:56:39.030Z,4648.00
2018-02-24T06:57:39.016Z,4996.00
2018-02-24T06:58:39.002Z,5332.00
2018-02-24T06:59:38.991Z,5692.00
2018-02-24T07:00:38.975Z,6116.00
2018-02-24T07:01:38.962Z,6504.00
2018-02-24T07:02:38.948Z,6808.00
2018-02-24T07:03:38.933Z,7120.00
2018-02-24T07:04:38.920Z,7396.00
2018-02-24T07:05:38.907Z,7536.00
2018-02-24T07:06:38.893Z,6952.00
2018-02-24T07:07:38.877Z,5480.00
2018-02-24T07:08:38.864Z,3884.00
2018-02-24T07:09:38.854Z,3016.00
2018-02-24T07:10:38.840Z,2808.00
2018-02-24T07:11:38.828Z,2784.00
2018-02-24T07:12:38.816Z,2900.00
2018-02-24T07:13:38.803Z,3156.00
2018-02-24T07:14:38.790Z,3608.00
2018-02-24T07:15:38.780Z,4624.00
2018-02-24T07:16:38.769Z,6932.00
2018-02-24T07:17:38.755Z,9624.00
2018-02-24T07:18:38.742Z,11584.00
2018-02-24T07:19:38.730Z,12128.00
2018-02-24T07:20:38.717Z,12352.00
2018-02-24T07:21:38.704Z,12736.00
2018-02-24T07:22:38.694Z,13024.00
2018-02-24T07:23:38.676Z,13344.00
2018-02-24T07:24:38.667Z,13728.00
2018-02-24T07:25:38.655Z,13856.00
2018-02-24T07:26:38.643Z,14016.00
2018-02-24T07:27:38.631Z,14272.00
2018-02-24T07:28:38.622Z,14624.00
2018-02-24T07:29:38.607Z,14944.00
2018-02-24T07:30:38.596Z,15072.00
2018-02-24T07:31:38.589Z,15488.00
2018-02-24T07:32:38.578Z,15744.00
2018-02-24T07:33:38.567Z,16128.00
2018-02-24T07:34:38.557Z,16384.00
2018-02-24T07:35:38.548Z,16544.00
2018-02-24T07:36:38.539Z,16704.00
2018-02-24T07:37:38.528Z,16928.00
2018-02-24T07:38:38.519Z,17248.00
2018-02-24T07:39:38.506Z,17408.00
2018-02-24T07:40:38.499Z,17472.00
2018-02-24T07:41:38.494Z,17760.00
2018-02-24T07:42:38.479Z,17984.00
2018-02-24T07:43:38.475Z,18144.00
2018-02-24T07:44:38.466Z,18304.00
2018-02-24T07:45:38.458Z,18592.00
2018-02-24T07:46:38.451Z,18784.00
2018-02-24T07:47:38.440Z,18976.00
2018-02-24T07:48:38.434Z,19136.00
2018-02-24T07:49:38.424Z,19360.00
2018-02-24T07:50:38.418Z,19520.00
2018-02-24T07:51:38.411Z,19712.00
2018-02-24T07:52:38.403Z,19808.00
2018-02-24T07:53:38.396Z,20160.00
2018-02-24T07:54:38.390Z,20224.00
2018-02-24T07:55:38.384Z,20416.00
2018-02-24T07:56:38.379Z,11128.00
2018-02-24T07:57:38.373Z,11124.00
2018-02-24T07:58:38.367Z,11240.00
2018-02-24T07:59:38.359Z,11364.00
2018-02-24T08:00:38.358Z,11516.00
2018-02-24T08:01:38.350Z,11644.00
2018-02-24T08:02:38.346Z,11716.00
2018-02-24T08:03:38.338Z,11824.00
2018-02-24T08:04:38.327Z,11892.00
2018-02-24T08:05:38.321Z,12060.00
2018-02-24T08:06:38.316Z,12192.00
2018-02-24T08:07:38.311Z,12236.00
2018-02-24T08:08:38.312Z,12400.00
2018-02-24T08:09:38.301Z,12560.00
2018-02-24T08:10:38.296Z,12684.00
2018-02-24T08:11:38.293Z,12888.00
2018-02-24T08:12:38.286Z,13004.00
2018-02-24T08:13:38.282Z,13224.00
2018-02-24T08:14:38.277Z,13316.00
2018-02-24T08:15:38.270Z,13524.00
2018-02-24T08:16:38.266Z,13728.00
2018-02-24T08:17:38.261Z,13860.00
2018-02-24T08:18:38.258Z,14024.00
2018-02-24T08:19:38.248Z,14304.00
2018-02-24T08:20:38.245Z,14400.00
2018-02-24T08:21:38.240Z,14368.00
2018-02-24T08:22:38.236Z,14432.00
2018-02-24T08:23:38.230Z,14496.00
2018-02-24T08:24:38.227Z,14432.00
2018-02-24T08:25:38.223Z,14192.00
2018-02-24T08:26:38.219Z,14152.00
2018-02-24T08:27:38.216Z,14152.00
2018-02-24T08:28:38.215Z,14084.00
2018-02-24T08:29:38.208Z,14108.00
2018-02-24T08:30:38.205Z,14240.00
2018-02-24T08:31:38.199Z,14268.00
2018-02-24T08:32:38.199Z,14496.00
2018-02-24T08:33:38.192Z,14528.00
2018-02-24T08:34:38.189Z,14528.00
2018-02-24T08:35:38.181Z,14752.00
2018-02-24T08:36:38.178Z,14816.00
2018-02-24T08:37:38.174Z,15040.00
2018-02-24T08:38:38.171Z,15136.00
2018-02-24T08:39:38.167Z,14304.00
2018-02-24T08:40:38.163Z,15104.00
2018-02-24T08:41:38.160Z,13308.00
2018-02-24T08:42:38.156Z,13004.00
2018-02-24T08:43:38.157Z,15360.00
2018-02-24T08:44:38.156Z,16032.00
2018-02-24T08:45:38.151Z,16064.00
2018-02-24T08:46:38.147Z,16192.00
2018-02-24T08:47:38.141Z,16320.00
2018-02-24T08:48:38.139Z,16480.00
2018-02-24T08:49:38.135Z,16608.00
2018-02-24T08:50:38.131Z,16672.00
2018-02-24T08:51:38.132Z,16896.00
2018-02-24T08:52:38.129Z,16992.00
2018-02-24T08:53:38.126Z,17120.00
2018-02-24T08:54:38.124Z,17376.00
2018-02-24T08:55:38.121Z,17696.00
2018-02-24T08:56:38.118Z,17920.00
2018-02-24T08:57:38.115Z,18208.00
2018-02-24T08:58:38.113Z,18784.00
2018-02-24T08:59:38.109Z,19936.00
2018-02-24T09:00:38.106Z,20896.00
2018-02-24T09:01:38.106Z,21440.00
2018-02-24T09:02:38.104Z,22304.00
2018-02-24T09:03:38.107Z,22944.00
2018-02-24T09:04:38.100Z,23648.00
2018-02-24T09:05:38.101Z,22464.00
2018-02-24T09:06:38.100Z,22080.00
2018-02-24T09:07:38.101Z,22784.00
2018-02-24T09:08:38.100Z,22304.00
2018-02-24T09:09:38.099Z,23104.00
2018-02-24T09:10:38.099Z,23680.00
2018-02-24T09:11:38.099Z,22784.00
2018-02-24T09:12:38.099Z,22304.00
2018-02-24T09:13:38.097Z,22400.00
2018-02-24T09:14:38.101Z,22176.00
2018-02-24T09:15:38.093Z,22144.00
2018-02-24T09:16:38.094Z,24032.00
2018-02-24T09:17:38.092Z,23744.00
2018-02-24T09:18:38.091Z,23968.00
2018-02-24T09:19:38.092Z,23680.00
2018-02-24T09:20:38.090Z,21152.00
2018-02-24T09:21:38.091Z,22112.00
2018-02-24T09:22:38.091Z,23168.00
2018-02-24T09:23:38.093Z,22592.00
2018-02-24T09:24:38.093Z,21472.00
2018-02-24T09:25:38.092Z,20992.00
2018-02-24T09:26:38.093Z,21344.00
2018-02-24T09:27:38.092Z,21568.00
2018-02-24T09:28:38.092Z,21504.00
2018-02-24T09:29:38.092Z,21344.00
2018-02-24T09:30:38.093Z,22176.00
2018-02-24T09:31:38.090Z,21472.00
2018-02-24T09:32:38.090Z,21184.00
2018-02-24T09:33:38.094Z,20896.00
2018-02-24T09:34:38.090Z,20704.00
2018-02-24T09:35:38.090Z,21280.00
2018-02-24T09:36:38.090Z,21536.00
2018-02-24T09:37:38.092Z,22336.00
2018-02-24T09:38:38.094Z,23104.00
2018-02-24T09:39:38.093Z,24064.00
2018-02-24T09:40:38.094Z,24160.00
2018-02-24T09:41:38.093Z,23296.00
2018-02-24T09:42:38.095Z,22080.00
2018-02-24T09:43:38.095Z,20960.00
2018-02-24T09:44:38.096Z,20960.00
2018-02-24T09:45:38.096Z,21728.00
2018-02-24T09:46:38.098Z,21600.00
2018-02-24T09:47:38.095Z,21632.00
2018-02-24T09:48:38.096Z,21696.00
2018-02-24T09:49:38.099Z,21440.00
2018-02-24T09:50:38.103Z,20448.00
2018-02-24T09:51:38.104Z,21056.00
2018-02-24T09:52:38.107Z,21280.00
2018-02-24T09:53:38.109Z,22144.00
2018-02-24T09:54:38.131Z,21600.00
2018-02-24T09:55:38.109Z,22080.00
2018-02-24T09:56:38.110Z,21824.00
2018-02-24T09:57:38.113Z,22720.00
2018-02-24T09:58:38.116Z,22880.00
2018-02-24T09:59:38.116Z,20832.00
2018-02-24T10:00:38.118Z,16640.00
2018-02-24T10:01:38.121Z,19200.00
2018-02-24T10:02:38.124Z,19808.00
2018-02-24T10:03:38.128Z,18144.00
2018-02-24T10:04:38.129Z,16352.00
2018-02-24T10:05:38.132Z,13916.00
2018-02-24T10:06:38.133Z,13436.00
2018-02-24T10:07:38.134Z,15744.00
2018-02-24T10:08:38.134Z,17600.00
2018-02-24T10:09:38.134Z,18784.00
2018-02-24T10:10:38.136Z,20000.00
2018-02-24T10:11:38.132Z,20576.00
2018-02-24T10:12:38.132Z,20224.00
2018-02-24T10:13:38.131Z,19712.00
2018-02-24T10:14:38.132Z,19744.00
2018-02-24T10:15:38.130Z,19648.00
2018-02-24T10:16:38.129Z,19072.00
2018-02-24T10:17:38.132Z,19776.00
2018-02-24T10:18:38.130Z,20160.00
2018-02-24T10:19:38.132Z,19808.00
2018-02-24T10:20:38.133Z,20832.00
2018-02-24T10:21:38.133Z,21504.00
2018-02-24T10:22:38.134Z,20960.00
2018-02-24T10:23:38.132Z,20672.00
2018-02-24T10:24:38.134Z,21120.00
2018-02-24T10:25:38.133Z,21216.00
2018-02-24T10:26:38.133Z,21984.00
2018-02-24T10:27:38.129Z,22496.00
2018-02-24T10:28:38.133Z,22048.00
2018-02-24T10:29:38.129Z,25120.00
2018-02-24T10:30:38.131Z,24544.00
2018-02-24T10:31:38.129Z,24000.00
2018-02-24T10:32:38.130Z,24032.00
2018-02-24T10:33:38.131Z,24864.00
2018-02-24T10:34:38.130Z,26496.00
2018-02-24T10:35:38.134Z,27680.00
2018-02-24T10:36:38.137Z,25664.00
2018-02-24T10:37:38.757Z,23904.00
2018-02-24T10:38:38.137Z,24160.00
2018-02-24T10:39:38.145Z,27456.00
2018-02-24T10:40:38.141Z,28672.00
2018-02-24T10:41:38.141Z,25696.00
2018-02-24T10:42:38.142Z,23264.00
2018-02-24T10:43:38.143Z,22688.00
2018-02-24T10:44:38.143Z,23712.00
2018-02-24T10:45:38.146Z,30912.00
2018-02-24T10:46:38.148Z,34496.00
2018-02-24T10:47:38.149Z,34528.00
2018-02-24T10:48:38.152Z,31424.00
2018-02-24T10:49:38.154Z,24064.00
2018-02-24T10:50:38.156Z,20320.00
2018-02-24T10:51:38.161Z,19456.00
2018-02-24T10:52:38.162Z,17984.00
2018-02-24T10:53:38.164Z,19680.00
2018-02-24T10:54:38.167Z,20736.00
2018-02-24T10:55:38.165Z,20096.00
2018-02-24T10:56:38.167Z,19968.00
2018-02-24T10:57:38.170Z,20064.00
2018-02-24T10:58:38.172Z,20256.00
2018-02-24T10:59:38.175Z,19744.00
2018-02-24T11:00:38.178Z,19456.00
2018-02-24T11:01:38.180Z,19584.00
2018-02-24T11:02:38.182Z,19392.00
2018-02-24T11:03:38.183Z,19904.00
2018-02-24T11:04:38.185Z,20800.00
2018-02-24T11:05:38.187Z,20800.00
2018-02-24T11:06:38.188Z,20608.00
2018-02-24T11:07:38.186Z,20416.00
2018-02-24T11:08:38.189Z,20256.00
2018-02-24T11:09:38.190Z,20288.00
2018-02-24T11:10:38.195Z,20224.00
2018-02-24T11:11:38.194Z,18848.00
2018-02-24T11:12:38.196Z,19840.00
2018-02-24T11:13:38.200Z,19616.00
2018-02-24T11:14:38.200Z,19424.00
2018-02-24T11:15:38.205Z,18400.00
2018-02-24T11:16:38.209Z,19264.00
2018-02-24T11:17:38.210Z,19200.00
2018-02-24T11:18:38.212Z,19168.00
2018-02-24T11:19:38.214Z,19008.00
2018-02-24T11:20:38.215Z,18720.00
2018-02-24T11:21:38.217Z,18592.00
2018-02-24T11:22:38.220Z,18528.00
2018-02-24T11:23:38.217Z,18560.00
2018-02-24T11:24:38.218Z,18528.00
2018-02-24T11:25:38.220Z,18464.00
2018-02-24T11:26:38.223Z,18496.00
2018-02-24T11:27:38.224Z,18944.00
2018-02-24T11:28:38.224Z,17824.00
2018-02-24T11:29:38.225Z,19360.00
2018-02-24T11:30:38.225Z,19328.00
2018-02-24T11:31:38.227Z,20128.00
2018-02-24T11:32:38.228Z,19424.00
2018-02-24T11:33:38.230Z,18976.00
2018-02-24T11:34:38.230Z,19040.00
2018-02-24T11:35:38.230Z,19648.00
2018-02-24T11:36:38.231Z,19648.00
2018-02-24T11:37:38.231Z,19072.00
2018-02-24T11:38:38.233Z,18496.00
2018-02-24T11:39:38.229Z,18272.00
2018-02-24T11:40:38.233Z,14036.00
2018-02-24T11:41:38.231Z,7928.00
2018-02-24T11:42:38.230Z,6476.00
2018-02-24T11:43:38.229Z,6188.00
2018-02-24T11:44:38.228Z,6088.00
2018-02-24T11:45:38.227Z,6216.00
2018-02-24T11:46:38.226Z,6244.00
2018-02-24T11:47:38.226Z,6240.00
2018-02-24T11:48:38.225Z,6252.00
2018-02-24T11:49:38.221Z,6244.00
2018-02-24T11:50:38.220Z,6244.00
2018-02-24T11:51:38.215Z,6212.00
2018-02-24T11:52:38.212Z,6164.00
2018-02-24T11:53:38.208Z,6084.00
2018-02-24T11:54:38.205Z,6044.00
2018-02-24T11:55:38.212Z,5952.00
2018-02-24T11:56:38.192Z,5936.00
2018-02-24T11:57:38.189Z,5884.00
2018-02-24T11:58:38.184Z,5788.00
2018-02-24T11:59:38.180Z,5692.00
2018-02-24T12:00:38.173Z,5428.00
2018-02-24T12:01:38.167Z,5216.00
2018-02-24T12:02:38.160Z,5304.00
2018-02-24T12:03:38.157Z,4872.00
2018-02-24T12:04:38.150Z,5328.00
2018-02-24T12:05:38.143Z,5208.00
2018-02-24T12:06:38.136Z,5088.00
2018-02-24T12:07:38.143Z,4968.00
2018-02-24T12:08:38.123Z,5164.00
2018-02-24T12:09:38.159Z,5232.00
2018-02-24T12:10:38.110Z,5136.00
2018-02-24T12:11:38.099Z,5108.00
2018-02-24T12:12:38.092Z,5156.00
2018-02-24T12:13:38.085Z,5012.00
2018-02-24T12:14:38.079Z,4528.00
2018-02-24T12:15:38.070Z,4652.00
2018-02-24T12:16:38.062Z,4548.00
2018-02-24T12:17:38.056Z,4564.00
2018-02-24T12:18:38.047Z,4488.00
2018-02-24T12:19:38.043Z,4192.00
2018-02-24T12:20:38.034Z,4924.00
2018-02-24T12:21:38.028Z,5076.00
2018-02-24T12:22:38.021Z,5016.00
2018-02-24T12:23:38.012Z,4968.00
2018-02-24T12:24:38.004Z,4912.00
2018-02-24T12:25:37.996Z,4880.00
2018-02-24T12:26:37.989Z,4856.00
2018-02-24T12:27:37.976Z,4808.00
2018-02-24T12:28:37.969Z,4744.00
2018-02-24T12:29:37.962Z,4648.00
2018-02-24T12:30:37.953Z,4548.00
2018-02-24T12:31:37.945Z,4492.00
2018-02-24T12:32:37.936Z,4400.00